Time;durP1;ratioP1;P1;durP2;ratioP2;P2;SDS_P1;SDS_P2;PMS_P1;PMS_P2;Temp;Humidity;BMP_temperature;BMP_pressure;BME280_temperature;BME280_humidity;BME280_pressure;Samples;Min_cycle;Max_cycle;Signal;HPM_P1;HPM_P2
2021/06/10 00:02:23;;;;;;;;;;;23.80;57.90;;;;;;5040889;28;19917;-62
2021/06/10 00:04:49;;;;;;;;;;;23.80;57.90;;;;;;5068225;28;19920;-62
2021/06/10 00:07:14;;;;;;;;;;;23.80;57.90;;;;;;5067516;28;20365;-66
2021/06/10 00:09:40;;;;;;;;;;;23.70;57.80;;;;;;5060036;28;19917;-62
2021/06/10 00:12:05;;;;;;;;;;;23.70;57.70;;;;;;5059354;28;20388;-62
2021/06/10 00:14:31;;;;;;;;;;;23.80;57.80;;;;;;5058503;28;19998;-62
2021/06/10 00:16:56;;;;;;;;;;;23.70;57.70;;;;;;5058455;28;19921;-63
2021/06/10 00:19:22;;;;;;;;;;;23.70;57.70;;;;;;5059155;28;19920;-64
2021/06/10 00:21:47;;;;;;;;;;;23.80;57.60;;;;;;5058915;28;19923;-62
2021/06/10 00:24:13;;;;;;;;;;;23.80;57.60;;;;;;5041932;28;19927;-63
2021/06/10 00:26:38;;;;;;;;;;;23.80;57.60;;;;;;5058970;28;19925;-63
2021/06/10 00:29:04;;;;;;;;;;;23.80;57.60;;;;;;5059320;28;19931;-62
2021/06/10 00:31:30;;;;;;;;;;;23.70;57.50;;;;;;5040649;28;19923;-62
2021/06/10 00:33:55;;;;;;;;;;;23.80;57.50;;;;;;5058810;28;20161;-63
2021/06/10 00:36:20;;;;;;;;;;;23.80;57.60;;;;;;5058212;28;20559;-62
2021/06/10 00:38:46;;;;;;;;;;;23.80;57.50;;;;;;5058549;28;19927;-63
2021/06/10 00:41:12;;;;;;;;;;;23.80;57.40;;;;;;5040254;28;19921;-62
2021/06/10 00:43:38;;;;;;;;;;;23.80;57.40;;;;;;5057778;28;19920;-63
2021/06/10 00:46:03;;;;;;;;;;;23.80;57.40;;;;;;5058184;28;20163;-62
2021/06/10 00:48:29;;;;;;;;;;;23.70;57.30;;;;;;5059655;28;20384;-62
2021/06/10 00:50:55;;;;;;;;;;;23.70;57.30;;;;;;5057269;28;19917;-62
2021/06/10 00:53:25;;;;;;;;;;;23.80;57.40;;;;;;5056762;28;19976;-63
2021/06/10 00:55:51;;;;;;;;;;;23.80;57.30;;;;;;5055402;28;19944;-62
2021/06/10 00:58:17;;;;;;;;;;;23.80;57.40;;;;;;5056519;28;19922;-63
2021/06/10 01:00:42;;;;;;;;;;;23.80;57.30;;;;;;5038817;28;20557;-62
2021/06/10 01:03:08;;;;;;;;;;;23.80;57.30;;;;;;5056428;28;19923;-62
2021/06/10 01:05:33;;;;;;;;;;;23.80;57.20;;;;;;5057189;28;19977;-62
2021/06/10 01:08:01;;;;;;;;;;;23.70;57.20;;;;;;5038625;28;19921;-62
2021/06/10 01:10:38;;;;;;;;;;;23.70;57.10;;;;;;5057026;28;20544;-62
2021/06/10 01:13:04;;;;;;;;;;;23.80;57.20;;;;;;5048019;28;19920;-63
2021/06/10 01:15:30;;;;;;;;;;;23.70;57.10;;;;;;5051573;28;19955;-62
2021/06/10 01:17:55;;;;;;;;;;;23.80;57.10;;;;;;5038255;28;20593;-63
2021/06/10 01:20:23;;;;;;;;;;;23.80;57.10;;;;;;5038067;28;19916;-63
2021/06/10 01:22:58;;;;;;;;;;;23.80;57.10;;;;;;5056384;28;20003;-62
2021/06/10 01:25:42;;;;;;;;;;;23.80;57.00;;;;;;5057335;28;19981;-62
2021/06/10 01:28:25;;;;;;;;;;;23.70;57.00;;;;;;5056639;28;19950;-62
2021/06/10 01:30:52;;;;;;;;;;;23.80;57.00;;;;;;5038537;28;20581;-62
2021/06/10 01:33:43;;;;;;;;;;;23.70;56.90;;;;;;5039604;28;19966;-63
2021/06/10 01:36:10;;;;;;;;;;;23.70;56.90;;;;;;5053617;28;19916;-63
2021/06/10 01:38:35;;;;;;;;;;;23.70;56.90;;;;;;5039400;28;19954;-63
2021/06/10 01:41:01;;;;;;;;;;;23.70;56.90;;;;;;5039158;28;19924;-63
2021/06/10 01:43:27;;;;;;;;;;;23.70;56.90;;;;;;5039422;28;19963;-63
2021/06/10 01:45:53;;;;;;;;;;;23.70;56.90;;;;;;5057209;28;19920;-63
2021/06/10 01:48:18;;;;;;;;;;;23.70;56.90;;;;;;5039277;28;20019;-62
2021/06/10 01:50:44;;;;;;;;;;;23.70;56.90;;;;;;5057006;28;19924;-63
2021/06/10 01:53:14;;;;;;;;;;;23.70;56.90;;;;;;5038878;28;19920;-62
2021/06/10 01:55:39;;;;;;;;;;;23.70;56.90;;;;;;5039378;28;19921;-63
2021/06/10 01:58:05;;;;;;;;;;;23.70;56.80;;;;;;5056605;28;19921;-63
2021/06/10 02:00:30;;;;;;;;;;;23.70;56.80;;;;;;5037866;28;19926;-62
2021/06/10 02:02:56;;;;;;;;;;;23.70;56.90;;;;;;5056379;28;20705;-63
2021/06/10 02:05:21;;;;;;;;;;;23.70;56.80;;;;;;5021876;28;19947;-63
2021/06/10 02:07:46;;;;;;;;;;;23.70;56.80;;;;;;5038956;28;20015;-62
2021/06/10 02:10:13;;;;;;;;;;;23.70;56.80;;;;;;5062025;28;19916;-62
2021/06/10 02:12:38;;;;;;;;;;;23.70;56.80;;;;;;5045325;28;20019;-63
2021/06/10 02:15:04;;;;;;;;;;;23.70;57.50;;;;;;5076805;22;19909;-60
2021/06/10 02:17:30;;;;;;;;;;;23.70;56.80;;;;;;5081250;28;19920;-62
2021/06/10 02:19:55;;;;;;;;;;;23.70;56.80;;;;;;5064810;28;19916;-61
2021/06/10 02:22:21;;;;;;;;;;;23.70;56.80;;;;;;5083049;28;19923;-63
2021/06/10 02:24:50;;;;;;;;;;;23.70;56.80;;;;;;5064223;28;19927;-63
2021/06/10 02:27:15;;;;;;;;;;;23.70;56.80;;;;;;5063924;28;20385;-61
2021/06/10 02:29:41;;;;;;;;;;;23.70;56.80;;;;;;5063122;28;19951;-61
2021/06/10 02:32:06;;;;;;;;;;;23.70;56.80;;;;;;5045658;28;19925;-63
2021/06/10 02:34:32;;;;;;;;;;;23.70;56.80;;;;;;5064310;28;19916;-62
2021/06/10 02:36:58;;;;;;;;;;;23.70;56.80;;;;;;5045402;28;21480;-62
2021/06/10 02:39:23;;;;;;;;;;;23.70;56.80;;;;;;5045457;28;19924;-62
2021/06/10 02:41:51;;;;;;;;;;;23.70;56.80;;;;;;5025573;28;19920;-61
2021/06/10 02:44:16;;;;;;;;;;;23.70;56.90;;;;;;5045826;28;19916;-63
2021/06/10 02:46:41;;;;;;;;;;;23.70;56.80;;;;;;5045170;28;19947;-62
2021/06/10 02:49:07;;;;;;;;;;;23.70;56.80;;;;;;5063625;28;19920;-63
2021/06/10 02:51:33;;;;;;;;;;;23.70;56.90;;;;;;5045419;28;19920;-62
2021/06/10 02:54:03;;;;;;;;;;;23.70;56.80;;;;;;5063004;28;19920;-62
2021/06/10 02:56:28;;;;;;;;;;;23.70;56.80;;;;;;5055901;28;19923;-63
2021/06/10 02:58:59;;;;;;;;;;;23.70;56.80;;;;;;5063598;28;20367;-63
2021/06/10 03:01:25;;;;;;;;;;;23.70;56.80;;;;;;5044305;28;20042;-61
2021/06/10 03:03:51;;;;;;;;;;;23.70;56.90;;;;;;5043488;28;19932;-61
2021/06/10 03:06:16;;;;;;;;;;;23.70;56.80;;;;;;5044822;28;20248;-61
2021/06/10 03:08:41;;;;;;;;;;;23.70;56.90;;;;;;5046447;28;20378;-63
2021/06/10 03:11:07;;;;;;;;;;;23.70;56.80;;;;;;5044674;28;19916;-61
2021/06/10 03:13:32;;;;;;;;;;;23.60;56.80;;;;;;5030759;28;19916;-63
2021/06/10 03:15:58;;;;;;;;;;;23.70;56.80;;;;;;5063320;28;19931;-63
2021/06/10 03:18:23;;;;;;;;;;;23.60;56.80;;;;;;5047127;28;19928;-62
2021/06/10 03:20:49;;;;;;;;;;;23.60;56.80;;;;;;5044466;28;19947;-63
2021/06/10 03:23:15;;;;;;;;;;;23.60;56.80;;;;;;5065703;28;19923;-61
2021/06/10 03:25:40;;;;;;;;;;;23.70;56.80;;;;;;5047817;28;19923;-62
2021/06/10 03:28:05;;;;;;;;;;;23.70;56.90;;;;;;5045277;28;20337;-63
2021/06/10 03:30:31;;;;;;;;;;;23.60;56.80;;;;;;5048671;28;20250;-61
2021/06/10 03:32:56;;;;;;;;;;;23.60;56.80;;;;;;5041335;28;20688;-60
2021/06/10 03:35:22;;;;;;;;;;;23.70;56.90;;;;;;5043427;28;19964;-61
2021/06/10 03:37:47;;;;;;;;;;;23.60;56.80;;;;;;5065226;28;20471;-62
2021/06/10 03:40:13;;;;;;;;;;;23.60;57.50;;;;;;5043462;28;19916;-61
2021/06/10 03:42:38;;;;;;;;;;;23.60;56.80;;;;;;5044637;28;19927;-61
2021/06/10 03:45:05;;;;;;;;;;;23.60;56.90;;;;;;5041179;28;19920;-62
2021/06/10 03:47:30;;;;;;;;;;;23.60;56.90;;;;;;5040889;28;20122;-62
2021/06/10 03:49:56;;;;;;;;;;;23.60;56.90;;;;;;5042781;28;20327;-62
2021/06/10 03:52:22;;;;;;;;;;;23.60;56.90;;;;;;5073365;28;19927;-61
2021/06/10 03:54:48;;;;;;;;;;;23.60;56.90;;;;;;5058608;28;19917;-61
2021/06/10 03:57:13;;;;;;;;;;;23.60;56.90;;;;;;5062220;28;19920;-63
2021/06/10 03:59:39;;;;;;;;;;;23.60;56.90;;;;;;5057710;28;19958;-61
2021/06/10 04:02:05;;;;;;;;;;;23.60;57.00;;;;;;5058746;28;19916;-62
2021/06/10 04:04:30;;;;;;;;;;;23.60;57.00;;;;;;5057018;28;19931;-62
2021/06/10 04:06:57;;;;;;;;;;;23.60;57.00;;;;;;5039322;28;19924;-62
2021/06/10 04:09:22;;;;;;;;;;;23.60;57.00;;;;;;5044658;28;20396;-62
2021/06/10 04:11:48;;;;;;;;;;;23.60;57.00;;;;;;5058406;28;19955;-61
2021/06/10 04:14:13;;;;;;;;;;;23.60;57.00;;;;;;5057444;28;19932;-62
2021/06/10 04:16:39;;;;;;;;;;;23.60;57.00;;;;;;5058694;28;19924;-62
2021/06/10 04:19:04;;;;;;;;;;;23.60;57.00;;;;;;5058366;28;19920;-61
2021/06/10 04:21:30;;;;;;;;;;;23.50;57.00;;;;;;5048346;28;19928;-64
2021/06/10 04:23:55;;;;;;;;;;;23.60;57.00;;;;;;5061637;28;20274;-62
2021/06/10 04:26:21;;;;;;;;;;;23.60;57.00;;;;;;5060964;28;19925;-63
2021/06/10 04:28:46;;;;;;;;;;;23.60;57.00;;;;;;5044757;28;19920;-62
2021/06/10 04:31:12;;;;;;;;;;;23.60;57.00;;;;;;5057417;28;19917;-61
2021/06/10 04:33:38;;;;;;;;;;;23.60;57.10;;;;;;5058330;28;19916;-62
2021/06/10 04:36:04;;;;;;;;;;;23.60;57.10;;;;;;5059580;28;19952;-62
2021/06/10 04:38:29;;;;;;;;;;;23.60;57.20;;;;;;5066913;28;20524;-62
2021/06/10 04:40:55;;;;;;;;;;;23.60;57.30;;;;;;5041874;28;19946;-62
2021/06/10 04:43:20;;;;;;;;;;;23.60;57.60;;;;;;5064254;28;20354;-62
2021/06/10 04:45:45;;;;;;;;;;;23.60;57.50;;;;;;5042262;28;19960;-62
2021/06/10 04:48:11;;;;;;;;;;;23.60;57.80;;;;;;5062279;28;19921;-61
2021/06/10 04:50:36;;;;;;;;;;;23.50;58.00;;;;;;5064340;28;20392;-61
2021/06/10 04:53:02;;;;;;;;;;;23.60;58.20;;;;;;5055990;28;19966;-62
2021/06/10 04:55:28;;;;;;;;;;;23.50;58.30;;;;;;5063561;28;19920;-61
2021/06/10 04:57:53;;;;;;;;;;;23.60;58.30;;;;;;5062094;28;19925;-62
2021/06/10 05:00:19;;;;;;;;;;;23.50;58.50;;;;;;5062557;28;20378;-62
2021/06/10 05:02:44;;;;;;;;;;;23.50;58.70;;;;;;5057359;28;19936;-61
2021/06/10 05:05:10;;;;;;;;;;;23.50;59.00;;;;;;5039614;28;19947;-61
2021/06/10 05:07:35;;;;;;;;;;;23.50;59.20;;;;;;5044710;28;20030;-62
2021/06/10 05:10:01;;;;;;;;;;;23.50;59.20;;;;;;5042133;28;19924;-62
2021/06/10 05:12:26;;;;;;;;;;;23.50;59.30;;;;;;5062416;28;19946;-63
2021/06/10 05:14:52;;;;;;;;;;;23.50;59.40;;;;;;5041689;28;19932;-62
2021/06/10 05:17:17;;;;;;;;;;;23.50;59.40;;;;;;5045299;28;19920;-60
2021/06/10 05:19:43;;;;;;;;;;;23.50;59.40;;;;;;5040733;28;20340;-61
2021/06/10 05:22:08;;;;;;;;;;;23.50;59.40;;;;;;5041121;28;19916;-62
2021/06/10 05:24:34;;;;;;;;;;;23.50;59.30;;;;;;5059642;28;19935;-61
2021/06/10 05:26:59;;;;;;;;;;;23.50;59.20;;;;;;5068481;28;19962;-61
2021/06/10 05:29:25;;;;;;;;;;;23.60;59.20;;;;;;5039132;28;20601;-61
2021/06/10 05:31:50;;;;;;;;;;;23.50;59.10;;;;;;5060927;28;19927;-61
2021/06/10 05:34:16;;;;;;;;;;;23.60;59.30;;;;;;5046594;28;20387;-60
2021/06/10 05:36:41;;;;;;;;;;;23.50;59.30;;;;;;5076398;28;20001;-61
2021/06/10 05:39:07;;;;;;;;;;;23.50;59.40;;;;;;5049045;28;19919;-60
2021/06/10 05:41:32;;;;;;;;;;;23.50;59.70;;;;;;5053492;28;20358;-61
2021/06/10 05:43:58;;;;;;;;;;;23.50;59.80;;;;;;5057825;28;19942;-60
2021/06/10 05:46:23;;;;;;;;;;;23.50;59.80;;;;;;5050259;28;19920;-60
2021/06/10 05:48:49;;;;;;;;;;;23.60;60.00;;;;;;5041650;28;20309;-60
2021/06/10 05:51:14;;;;;;;;;;;23.50;59.80;;;;;;5049906;28;19917;-61
2021/06/10 05:53:40;;;;;;;;;;;23.50;59.80;;;;;;5058606;28;20257;-60
2021/06/10 05:56:05;;;;;;;;;;;23.50;60.00;;;;;;5067595;28;20284;-61
2021/06/10 05:58:31;;;;;;;;;;;23.60;60.00;;;;;;5068693;28;19936;-60
2021/06/10 06:00:56;;;;;;;;;;;23.60;60.00;;;;;;5063654;28;19913;-62
2021/06/10 06:03:22;;;;;;;;;;;23.60;60.10;;;;;;5041009;28;19995;-61
2021/06/10 06:05:47;;;;;;;;;;;23.60;60.30;;;;;;5062493;28;20305;-62
2021/06/10 06:08:14;;;;;;;;;;;23.60;60.10;;;;;;5042579;28;19913;-61
2021/06/10 06:10:39;;;;;;;;;;;23.60;60.30;;;;;;5078252;28;20397;-61
2021/06/10 06:13:07;;;;;;;;;;;23.50;60.20;;;;;;5071302;28;19916;-61
2021/06/10 06:15:33;;;;;;;;;;;23.60;60.20;;;;;;5057699;28;20436;-61
2021/06/10 06:17:58;;;;;;;;;;;23.60;60.60;;;;;;5066122;28;19923;-61
2021/06/10 06:20:24;;;;;;;;;;;23.50;60.60;;;;;;5047756;28;20509;-61
2021/06/10 06:22:49;;;;;;;;;;;23.60;60.40;;;;;;5053305;28;19916;-62
2021/06/10 06:25:15;;;;;;;;;;;23.60;60.40;;;;;;5059310;28;19920;-61
2021/06/10 06:27:41;;;;;;;;;;;23.50;60.30;;;;;;5046664;28;19960;-61
2021/06/10 06:30:06;;;;;;;;;;;23.50;60.60;;;;;;5064704;28;19917;-61
2021/06/10 06:32:34;;;;;;;;;;;23.50;60.40;;;;;;5047064;28;19995;-61
2021/06/10 06:34:59;;;;;;;;;;;23.50;60.40;;;;;;5060507;28;19916;-61
2021/06/10 06:37:25;;;;;;;;;;;23.60;60.90;;;;;;5064753;28;20415;-61
2021/06/10 06:39:50;;;;;;;;;;;23.50;60.60;;;;;;5069825;28;19923;-60
2021/06/10 06:42:16;;;;;;;;;;;23.50;60.70;;;;;;5070173;28;19922;-60
2021/06/10 06:44:41;;;;;;;;;;;23.50;60.70;;;;;;5067630;28;19974;-61
2021/06/10 06:47:07;;;;;;;;;;;23.50;60.60;;;;;;5044190;28;19924;-61
2021/06/10 06:49:32;;;;;;;;;;;23.50;60.70;;;;;;5066484;28;20377;-62
2021/06/10 06:51:58;;;;;;;;;;;23.50;60.80;;;;;;5073564;28;19920;-61
2021/06/10 06:54:23;;;;;;;;;;;23.50;60.90;;;;;;5048507;28;19920;-62
2021/06/10 06:56:49;;;;;;;;;;;23.50;60.90;;;;;;5069467;28;20077;-61
2021/06/10 06:59:14;;;;;;;;;;;23.50;60.90;;;;;;5079247;28;19919;-60
2021/06/10 07:01:40;;;;;;;;;;;23.50;60.90;;;;;;5068113;28;20507;-62
2021/06/10 07:04:06;;;;;;;;;;;23.50;60.90;;;;;;5081533;28;19923;-60
2021/06/10 07:06:31;;;;;;;;;;;23.50;60.80;;;;;;5057635;28;19928;-62
2021/06/10 07:08:57;;;;;;;;;;;23.50;60.80;;;;;;5040582;28;19916;-60
2021/06/10 07:11:22;;;;;;;;;;;23.50;61.40;;;;;;5072903;28;19917;-61
2021/06/10 07:13:48;;;;;;;;;;;23.50;60.80;;;;;;5058717;28;19918;-63
2021/06/10 07:16:13;;;;;;;;;;;23.40;60.80;;;;;;5067013;28;19977;-63
2021/06/10 07:18:39;;;;;;;;;;;23.50;60.80;;;;;;5061491;28;19913;-62
2021/06/10 07:21:04;;;;;;;;;;;23.50;60.40;;;;;;5057260;28;19912;-63
2021/06/10 07:23:30;;;;;;;;;;;23.50;60.60;;;;;;5077344;28;20076;-62
2021/06/10 07:25:55;;;;;;;;;;;23.50;60.50;;;;;;5063299;28;20274;-61
2021/06/10 07:28:21;;;;;;;;;;;23.50;60.50;;;;;;5067820;28;20222;-62
2021/06/10 07:30:46;;;;;;;;;;;23.40;60.60;;;;;;5061047;28;20217;-62
2021/06/10 07:33:11;;;;;;;;;;;23.40;60.60;;;;;;5066069;28;19912;-63
2021/06/10 07:35:39;;;;;;;;;;;23.40;60.60;;;;;;5056421;28;20348;-62
2021/06/10 07:38:04;;;;;;;;;;;23.40;60.60;;;;;;5054359;28;19919;-62
2021/06/10 07:40:30;;;;;;;;;;;23.50;60.70;;;;;;5062325;28;20435;-62
2021/06/10 07:42:56;;;;;;;;;;;23.50;60.70;;;;;;5063969;28;19916;-62
2021/06/10 07:45:21;;;;;;;;;;;23.40;60.70;;;;;;5062534;28;19919;-62
2021/06/10 07:47:47;;;;;;;;;;;23.50;60.80;;;;;;5062901;28;19916;-62
2021/06/10 07:50:12;;;;;;;;;;;23.40;60.70;;;;;;5070630;28;19916;-62
2021/06/10 07:52:38;;;;;;;;;;;23.40;60.80;;;;;;5047009;28;19916;-61
2021/06/10 07:55:04;;;;;;;;;;;23.40;60.80;;;;;;5064851;28;19916;-62
2021/06/10 07:57:30;;;;;;;;;;;23.40;60.70;;;;;;5075481;28;19916;-62
2021/06/10 07:59:55;;;;;;;;;;;23.40;60.70;;;;;;5063924;28;19923;-61
2021/06/10 08:02:22;;;;;;;;;;;23.40;60.70;;;;;;5042377;28;19912;-61
2021/06/10 08:04:48;;;;;;;;;;;23.40;60.70;;;;;;5078271;28;19916;-61
2021/06/10 08:07:13;;;;;;;;;;;23.40;60.70;;;;;;5064486;28;20031;-61
2021/06/10 08:09:38;;;;;;;;;;;23.40;60.70;;;;;;5069119;28;19916;-61
2021/06/10 08:12:04;;;;;;;;;;;23.40;60.80;;;;;;5049905;28;19917;-62
2021/06/10 08:14:30;;;;;;;;;;;23.40;60.80;;;;;;5076046;28;20297;-61
2021/06/10 08:16:55;;;;;;;;;;;23.40;60.80;;;;;;5060291;22;20312;-62
2021/06/10 08:19:20;;;;;;;;;;;23.40;60.70;;;;;;5059629;28;19912;-62
2021/06/10 08:21:46;;;;;;;;;;;23.40;60.60;;;;;;5060569;28;19916;-60
2021/06/10 08:24:11;;;;;;;;;;;23.40;60.60;;;;;;5056991;28;19916;-62
2021/06/10 08:26:37;;;;;;;;;;;23.30;60.50;;;;;;5053305;28;19920;-62
2021/06/10 08:29:03;;;;;;;;;;;23.40;60.60;;;;;;5065904;28;19912;-63
2021/06/10 08:31:28;;;;;;;;;;;23.40;60.40;;;;;;5079158;28;19912;-61
2021/06/10 08:33:54;;;;;;;;;;;23.50;60.10;;;;;;5061195;28;19917;-62
2021/06/10 08:36:21;;;;;;;;;;;23.50;59.80;;;;;;5064780;28;19924;-62
2021/06/10 08:38:47;;;;;;;;;;;23.50;59.70;;;;;;5042097;28;19912;-60
2021/06/10 08:41:12;;;;;;;;;;;23.50;59.80;;;;;;5051061;28;19917;-60
2021/06/10 08:43:38;;;;;;;;;;;23.50;59.90;;;;;;5041854;28;20319;-63
2021/06/10 08:46:05;;;;;;;;;;;23.40;59.80;;;;;;5064020;28;19920;-60
2021/06/10 08:48:31;;;;;;;;;;;23.40;59.90;;;;;;5071149;28;19916;-62
2021/06/10 08:50:57;;;;;;;;;;;23.40;60.10;;;;;;5048643;28;20023;-61
2021/06/10 08:53:22;;;;;;;;;;;23.40;60.10;;;;;;5060346;28;20119;-61
2021/06/10 08:55:49;;;;;;;;;;;23.50;59.50;;;;;;5050385;28;20450;-60
2021/06/10 08:58:15;;;;;;;;;;;23.40;59.60;;;;;;5059791;28;19961;-59
2021/06/10 09:00:40;;;;;;;;;;;23.40;59.90;;;;;;5073345;28;19912;-63
2021/06/10 09:03:07;;;;;;;;;;;23.40;59.90;;;;;;5079798;28;19920;-63
2021/06/10 09:05:32;;;;;;;;;;;23.40;60.00;;;;;;5079997;28;19920;-65
2021/06/10 09:08:02;;;;;;;;;;;23.40;60.10;;;;;;5053094;28;19923;-63
2021/06/10 09:10:28;;;;;;;;;;;23.40;60.10;;;;;;5054151;28;19974;-63
2021/06/10 09:13:00;;;;;;;;;;;23.40;60.50;;;;;;5069003;28;19924;-63
2021/06/10 09:15:27;;;;;;;;;;;23.40;60.10;;;;;;5048452;28;20610;-61
2021/06/10 09:17:54;;;;;;;;;;;23.40;60.00;;;;;;5077113;28;20146;-64
2021/06/10 09:20:20;;;;;;;;;;;23.40;60.10;;;;;;5062930;28;19924;-63
2021/06/10 09:22:45;;;;;;;;;;;23.40;60.10;;;;;;5071709;28;19916;-61
2021/06/10 09:25:12;;;;;;;;;;;23.40;60.20;;;;;;5060237;28;19944;-61
2021/06/10 09:27:57;;;;;;;;;;;23.40;60.20;;;;;;5068105;28;19968;-63
2021/06/10 09:30:29;;;;;;;;;;;23.40;59.90;;;;;;5055314;28;19919;-59
2021/06/10 09:32:54;;;;;;;;;;;23.40;60.10;;;;;;5061277;28;19957;-63
2021/06/10 09:35:26;;;;;;;;;;;23.40;60.10;;;;;;5054774;28;19951;-61
2021/06/10 09:37:55;;;;;;;;;;;23.40;60.20;;;;;;5064196;28;19928;-65
2021/06/10 09:40:20;;;;;;;;;;;23.40;60.10;;;;;;5059144;28;19928;-60
2021/06/10 09:42:46;;;;;;;;;;;23.40;60.20;;;;;;5061902;28;19916;-63
2021/06/10 09:45:12;;;;;;;;;;;23.40;60.20;;;;;;5069048;28;19923;-65
2021/06/10 09:47:40;;;;;;;;;;;23.40;60.30;;;;;;5049539;28;19920;-65
2021/06/10 09:50:17;;;;;;;;;;;23.40;60.10;;;;;;5071774;28;19984;-60
2021/06/10 09:52:45;;;;;;;;;;;23.30;60.30;;;;;;5056050;28;19919;-61
2021/06/10 09:55:20;;;;;;;;;;;23.30;60.40;;;;;;5070303;28;20292;-62
2021/06/10 09:57:45;;;;;;;;;;;23.40;60.30;;;;;;5060288;28;20381;-60
2021/06/10 10:00:11;;;;;;;;;;;23.40;60.30;;;;;;5077784;28;19922;-62
2021/06/10 10:02:36;;;;;;;;;;;23.40;60.30;;;;;;5068369;28;20262;-65
2021/06/10 10:05:06;;;;;;;;;;;23.30;60.20;;;;;;5075528;28;20278;-59
2021/06/10 10:07:35;;;;;;;;;;;23.40;60.10;;;;;;5067945;28;20420;-60
2021/06/10 10:10:00;;;;;;;;;;;23.40;60.10;;;;;;5044372;28;20092;-64
2021/06/10 10:12:27;;;;;;;;;;;23.40;60.10;;;;;;5067553;28;19978;-65
2021/06/10 10:14:53;;;;;;;;;;;23.40;60.00;;;;;;5062911;28;20017;-63
2021/06/10 10:17:18;;;;;;;;;;;23.40;60.00;;;;;;5043874;28;20231;-63
2021/06/10 10:19:43;;;;;;;;;;;23.40;60.10;;;;;;5055685;28;19961;-62
2021/06/10 10:22:11;;;;;;;;;;;23.40;59.70;;;;;;5047362;28;20209;-65
2021/06/10 10:24:37;;;;;;;;;;;23.40;59.70;;;;;;5058683;28;19913;-65
2021/06/10 10:27:03;;;;;;;;;;;23.40;59.80;;;;;;5060521;28;19920;-64
2021/06/10 10:29:28;;;;;;;;;;;23.40;59.80;;;;;;5064784;28;20007;-65
2021/06/10 10:31:54;;;;;;;;;;;23.40;59.70;;;;;;5066810;28;19912;-62
2021/06/10 10:34:28;;;;;;;;;;;23.40;59.70;;;;;;5059029;28;19916;-58
2021/06/10 10:36:54;;;;;;;;;;;23.40;59.70;;;;;;5058925;28;19970;-64
2021/06/10 10:39:28;;;;;;;;;;;23.40;59.40;;;;;;5063115;28;19916;-66
2021/06/10 10:41:53;;;;;;;;;;;23.40;59.50;;;;;;5043872;28;19920;-63
2021/06/10 10:44:24;;;;;;;;;;;23.40;59.50;;;;;;5075493;28;19912;-64
2021/06/10 10:47:02;;;;;;;;;;;23.40;59.60;;;;;;5053108;28;20270;-65
2021/06/10 10:49:29;;;;;;;;;;;23.40;59.80;;;;;;5080275;28;19916;-63
2021/06/10 10:51:55;;;;;;;;;;;23.40;59.70;;;;;;5046953;28;20396;-62
2021/06/10 10:54:30;;;;;;;;;;;23.50;59.60;;;;;;5062691;28;19912;-64
2021/06/10 10:56:55;;;;;;;;;;;23.50;59.60;;;;;;5059322;28;20481;-63
2021/06/10 10:59:21;;;;;;;;;;;23.50;59.50;;;;;;5065547;28;19913;-61
2021/06/10 11:02:04;;;;;;;;;;;23.50;59.60;;;;;;5066688;28;20365;-64
2021/06/10 11:04:48;;;;;;;;;;;23.40;59.70;;;;;;5079327;28;20057;-63
2021/06/10 11:07:32;;;;;;;;;;;23.40;59.70;;;;;;5055867;28;19978;-64
2021/06/10 11:09:58;;;;;;;;;;;23.40;59.90;;;;;;5075231;28;19966;-63
2021/06/10 11:12:44;;;;;;;;;;;23.50;59.90;;;;;;5054180;28;19916;-64
2021/06/10 11:15:16;;;;;;;;;;;23.50;59.90;;;;;;5070839;28;19916;-60
2021/06/10 11:17:45;;;;;;;;;;;23.50;59.80;;;;;;5062006;28;19931;-66
2021/06/10 11:20:13;;;;;;;;;;;23.50;59.90;;;;;;5056737;28;19916;-65
2021/06/10 11:22:38;;;;;;;;;;;23.50;59.90;;;;;;5040119;28;20011;-60
2021/06/10 11:25:16;;;;;;;;;;;23.50;59.90;;;;;;5060180;28;19995;-65
2021/06/10 11:28:05;;;;;;;;;;;23.50;59.90;;;;;;5065426;28;19920;-61
2021/06/10 11:30:31;;;;;;;;;;;23.50;59.90;;;;;;5064188;28;20027;-62
2021/06/10 11:32:56;;;;;;;;;;;23.50;60.20;;;;;;5068799;28;20391;-63
2021/06/10 11:35:28;;;;;;;;;;;23.50;60.30;;;;;;5045809;28;19912;-60
2021/06/10 11:37:57;;;;;;;;;;;23.50;60.30;;;;;;5061941;28;19916;-61
2021/06/10 11:40:22;;;;;;;;;;;23.50;60.10;;;;;;5047609;28;19916;-63
2021/06/10 11:42:48;;;;;;;;;;;23.50;59.80;;;;;;5042419;28;19919;-61
2021/06/10 11:45:13;;;;;;;;;;;23.50;59.80;;;;;;5048911;28;19974;-60
2021/06/10 11:47:41;;;;;;;;;;;23.50;59.60;;;;;;5067366;28;20258;-63
2021/06/10 11:50:25;;;;;;;;;;;23.50;59.50;;;;;;5059122;28;19912;-63
2021/06/10 11:52:55;;;;;;;;;;;23.50;59.30;;;;;;5064343;28;19955;-63
2021/06/10 11:55:20;;;;;;;;;;;23.50;59.10;;;;;;5062397;28;19924;-60
2021/06/10 11:57:53;;;;;;;;;;;23.50;58.70;;;;;;5067206;28;19920;-60
2021/06/10 12:00:23;;;;;;;;;;;23.50;58.90;;;;;;5050343;28;19916;-59
2021/06/10 12:02:53;;;;;;;;;;;23.50;58.70;;;;;;5066112;28;19999;-60
2021/06/10 12:05:20;;;;;;;;;;;23.50;58.30;;;;;;5043577;28;20213;-61
2021/06/10 12:07:46;;;;;;;;;;;23.50;58.40;;;;;;5064650;28;19959;-62
2021/06/10 12:10:18;;;;;;;;;;;23.50;58.40;;;;;;5040823;28;19948;-61
2021/06/10 12:12:45;;;;;;;;;;;23.50;58.50;;;;;;5063414;28;19939;-65
2021/06/10 12:15:13;;;;;;;;;;;23.60;58.30;;;;;;5050265;28;19917;-63
2021/06/10 12:17:58;;;;;;;;;;;23.50;58.30;;;;;;5062547;28;19925;-65
2021/06/10 12:20:24;;;;;;;;;;;23.60;58.30;;;;;;5068370;28;20368;-58
2021/06/10 12:22:49;;;;;;;;;;;23.60;58.30;;;;;;5076907;28;19916;-60
2021/06/10 12:25:19;;;;;;;;;;;23.60;58.30;;;;;;5060434;28;20408;-61
2021/06/10 12:27:45;;;;;;;;;;;23.60;58.40;;;;;;5056640;28;20410;-61
2021/06/10 12:30:23;;;;;;;;;;;23.60;58.30;;;;;;5054947;28;19913;-64
2021/06/10 12:32:49;;;;;;;;;;;23.60;58.30;;;;;;5063565;28;20369;-63
2021/06/10 12:35:17;;;;;;;;;;;23.60;58.50;;;;;;5042279;28;19970;-64
2021/06/10 12:37:42;;;;;;;;;;;23.60;59.30;;;;;;5051026;28;19966;-60
2021/06/10 12:40:08;;;;;;;;;;;23.60;58.60;;;;;;5059142;28;19913;-61
2021/06/10 12:42:33;;;;;;;;;;;23.60;58.60;;;;;;5037209;28;19912;-61
2021/06/10 12:44:59;;;;;;;;;;;23.60;58.60;;;;;;5070767;28;20087;-61
2021/06/10 12:47:31;;;;;;;;;;;23.60;58.60;;;;;;5063198;28;20377;-63
2021/06/10 12:49:56;;;;;;;;;;;23.60;58.70;;;;;;5057707;28;19920;-64
2021/06/10 12:52:25;;;;;;;;;;;23.60;58.70;;;;;;5066210;28;19922;-61
2021/06/10 12:54:57;;;;;;;;;;;23.60;58.80;;;;;;5079609;28;19916;-65
2021/06/10 12:57:27;;;;;;;;;;;23.60;58.70;;;;;;5045322;28;20428;-63
2021/06/10 13:00:05;;;;;;;;;;;23.60;58.50;;;;;;5059253;28;19966;-64
2021/06/10 13:02:33;;;;;;;;;;;23.60;58.50;;;;;;5058437;28;19924;-65
2021/06/10 13:05:18;;;;;;;;;;;23.70;58.30;;;;;;5045402;28;19927;-63
2021/06/10 13:07:44;;;;;;;;;;;23.60;58.30;;;;;;5067806;28;19932;-65
2021/06/10 13:10:10;;;;;;;;;;;23.70;58.10;;;;;;5058462;28;19912;-64
2021/06/10 13:12:39;;;;;;;;;;;23.70;57.40;;;;;;5052999;28;20392;-64
2021/06/10 13:15:04;;;;;;;;;;;23.70;57.60;;;;;;5060661;28;19969;-65
2021/06/10 13:17:45;;;;;;;;;;;23.60;57.20;;;;;;5058647;28;19928;-62
2021/06/10 13:20:11;;;;;;;;;;;23.70;57.30;;;;;;5070383;28;19912;-64
2021/06/10 13:22:36;;;;;;;;;;;23.60;57.30;;;;;;5033020;28;19969;-61
2021/06/10 13:25:06;;;;;;;;;;;23.60;57.20;;;;;;5047144;28;19916;-64
2021/06/10 13:27:31;;;;;;;;;;;23.70;57.30;;;;;;5050023;28;20302;-63
2021/06/10 13:29:57;;;;;;;;;;;23.70;57.40;;;;;;5033235;28;19927;-60
2021/06/10 13:32:22;;;;;;;;;;;23.70;57.50;;;;;;5067952;28;19917;-62
2021/06/10 13:34:56;;;;;;;;;;;23.70;57.30;;;;;;5078703;28;20321;-65
2021/06/10 13:37:22;;;;;;;;;;;23.70;57.30;;;;;;5070957;28;19920;-62
2021/06/10 13:39:47;;;;;;;;;;;23.70;57.50;;;;;;5078902;28;20175;-61
2021/06/10 13:42:13;;;;;;;;;;;23.70;57.50;;;;;;5067017;28;19989;-60
2021/06/10 13:44:39;;;;;;;;;;;23.70;57.30;;;;;;5062507;28;19912;-65
2021/06/10 13:47:05;;;;;;;;;;;23.80;56.80;;;;;;5049471;28;19923;-63
2021/06/10 13:49:31;;;;;;;;;;;23.70;56.10;;;;;;5070671;28;19916;-64
2021/06/10 13:51:56;;;;;;;;;;;23.70;56.10;;;;;;5047261;28;19920;-64
2021/06/10 13:54:21;;;;;;;;;;;23.70;56.60;;;;;;5058895;28;19916;-65
2021/06/10 13:56:47;;;;;;;;;;;23.70;57.70;;;;;;5058708;28;19917;-62
2021/06/10 13:59:13;;;;;;;;;;;23.70;57.40;;;;;;5058157;28;19995;-63
2021/06/10 14:01:38;;;;;;;;;;;23.70;57.30;;;;;;5031268;28;19913;-62
2021/06/10 14:04:04;;;;;;;;;;;23.70;57.20;;;;;;5073266;28;19947;-59
2021/06/10 14:06:29;;;;;;;;;;;23.70;57.20;;;;;;5042892;28;19924;-61
2021/06/10 14:08:56;;;;;;;;;;;23.70;57.50;;;;;;5064458;28;19991;-65
2021/06/10 14:11:21;;;;;;;;;;;23.70;57.50;;;;;;5071295;28;20373;-64
2021/06/10 14:13:47;;;;;;;;;;;23.70;57.20;;;;;;5049479;28;19917;-61
2021/06/10 14:16:18;;;;;;;;;;;23.70;57.40;;;;;;5062036;28;20427;-62